Time;durP1;ratioP1;P1;durP2;ratioP2;P2;SDS_P1;SDS_P2;PMS_P1;PMS_P2;Temp;Humidity;BMP_temperature;BMP_pressure;BME280_temperature;BME280_humidity;BME280_pressure;Samples;Min_cycle;Max_cycle;Signal;HPM_P1;HPM_P2
2021/12/22 00:00:38;;;;;;;;;;;1.00;82.60;;;;;;5007435;28;19914;-89
2021/12/22 00:03:06;;;;;;;;;;;1.00;82.70;;;;;;5007418;28;19909;-89
2021/12/22 00:05:32;;;;;;;;;;;1.00;82.60;;;;;;5024497;28;19915;-89
2021/12/22 00:07:58;;;;;;;;;;;1.00;82.60;;;;;;5024515;28;19940;-87
2021/12/22 00:10:24;;;;;;;;;;;0.90;82.50;;;;;;5023724;28;19959;-88
2021/12/22 00:12:50;;;;;;;;;;;1.00;82.70;;;;;;5008204;28;19917;-89
2021/12/22 00:15:16;;;;;;;;;;;0.90;82.60;;;;;;5023975;28;19920;-88
2021/12/22 00:17:49;;;;;;;;;;;0.90;82.60;;;;;;5008422;28;19910;-89
2021/12/22 00:20:21;;;;;;;;;;;0.90;82.60;;;;;;5024831;28;19909;-89
2021/12/22 00:22:47;;;;;;;;;;;0.90;82.60;;;;;;5007705;28;19909;-89
2021/12/22 00:25:12;;;;;;;;;;;0.80;82.50;;;;;;5024717;28;20383;-89
2021/12/22 00:27:38;;;;;;;;;;;0.90;82.60;;;;;;5008918;28;19940;-90
2021/12/22 00:30:04;;;;;;;;;;;0.80;82.60;;;;;;5024652;28;20361;-89
2021/12/22 00:32:31;;;;;;;;;;;0.80;82.60;;;;;;5025338;28;19924;-89
2021/12/22 00:34:57;;;;;;;;;;;0.80;82.50;;;;;;5008370;28;19909;-89
2021/12/22 00:37:24;;;;;;;;;;;0.80;82.50;;;;;;5024924;28;20424;-89
2021/12/22 00:39:50;;;;;;;;;;;0.70;82.50;;;;;;5005250;28;19924;-90
2021/12/22 00:42:16;;;;;;;;;;;0.80;82.60;;;;;;5025067;28;19921;-90
2021/12/22 00:44:43;;;;;;;;;;;0.70;82.50;;;;;;5024514;28;19909;-89
2021/12/22 00:47:09;;;;;;;;;;;0.70;82.50;;;;;;5007575;28;20377;-89
2021/12/22 00:49:35;;;;;;;;;;;0.70;82.50;;;;;;5024590;28;19918;-88
2021/12/22 00:52:03;;;;;;;;;;;0.70;82.50;;;;;;5008297;28;19947;-87
2021/12/22 00:54:29;;;;;;;;;;;0.70;82.60;;;;;;5023291;28;19909;-88
2021/12/22 01:00:01;;;;;;;;;;;0.70;82.50;;;;;;5025212;28;19917;-89
2021/12/22 01:02:26;;;;;;;;;;;0.60;82.50;;;;;;5025054;28;19913;-88
2021/12/22 01:08:02;;;;;;;;;;;0.60;82.50;;;;;;5024180;28;19916;-90
2021/12/22 01:10:29;;;;;;;;;;;0.60;82.40;;;;;;5006394;28;19910;-89
2021/12/22 01:12:59;;;;;;;;;;;0.60;82.50;;;;;;5017706;28;19956;-89
2021/12/22 01:15:26;;;;;;;;;;;0.60;82.60;;;;;;5026787;28;19909;-89
2021/12/22 01:18:03;;;;;;;;;;;0.60;82.60;;;;;;5043089;28;19916;-89
2021/12/22 01:20:38;;;;;;;;;;;0.60;82.50;;;;;;5026292;28;20283;-89
2021/12/22 01:23:13;;;;;;;;;;;0.50;82.50;;;;;;5043129;28;20268;-90
2021/12/22 01:25:43;;;;;;;;;;;0.50;82.50;;;;;;5025969;28;20439;-89
2021/12/22 01:28:09;;;;;;;;;;;0.50;82.50;;;;;;5026369;28;19931;-89
2021/12/22 01:30:42;;;;;;;;;;;0.50;82.60;;;;;;5026201;28;19909;-88
2021/12/22 01:33:22;;;;;;;;;;;0.50;82.60;;;;;;5025207;28;19913;-89
2021/12/22 01:38:52;;;;;;;;;;;0.50;82.50;;;;;;5043736;28;19916;-88
2021/12/22 01:41:26;;;;;;;;;;;0.50;82.50;;;;;;5026121;28;20360;-89
2021/12/22 01:43:57;;;;;;;;;;;0.40;82.60;;;;;;5042223;28;20364;-90
2021/12/22 01:49:13;;;;;;;;;;;0.40;82.60;;;;;;5043002;28;19916;-89
2021/12/22 01:51:39;;;;;;;;;;;0.40;82.60;;;;;;5041434;28;19913;-89
2021/12/22 01:54:07;;;;;;;;;;;0.40;82.60;;;;;;5024524;28;20002;-88
2021/12/22 01:56:34;;;;;;;;;;;0.40;82.60;;;;;;5041931;28;19909;-89
2021/12/22 01:59:01;;;;;;;;;;;0.40;82.60;;;;;;5040656;28;19909;-89
2021/12/22 02:01:29;;;;;;;;;;;0.40;83.20;;;;;;5041692;28;20344;-89
2021/12/22 02:03:55;;;;;;;;;;;0.40;82.60;;;;;;5042138;28;20352;-89
2021/12/22 02:06:24;;;;;;;;;;;0.40;82.60;;;;;;5041514;28;19956;-89
2021/12/22 02:08:52;;;;;;;;;;;0.40;82.70;;;;;;5041489;28;19909;-89
2021/12/22 02:11:18;;;;;;;;;;;0.40;82.60;;;;;;5025188;28;19909;-89
2021/12/22 02:13:48;;;;;;;;;;;0.30;82.60;;;;;;5025232;28;19924;-89
2021/12/22 02:16:16;;;;;;;;;;;0.30;83.30;;;;;;5041162;28;19920;-89
2021/12/22 02:18:43;;;;;;;;;;;0.30;82.70;;;;;;5041330;28;20011;-88
2021/12/22 02:21:08;;;;;;;;;;;0.30;82.70;;;;;;5025142;28;20020;-88
2021/12/22 02:23:35;;;;;;;;;;;0.30;82.70;;;;;;5041353;28;19916;-89
2021/12/22 02:26:50;;;;;;;;;;;0.30;82.80;;;;;;5025548;28;19909;-89
2021/12/22 02:29:01;;;;;;;;;;;0.20;82.70;;;;;;5034200;28;19913;-90
2021/12/22 02:31:27;;;;;;;;;;;0.20;82.70;;;;;;5024842;28;19913;-89
2021/12/22 02:33:54;;;;;;;;;;;0.20;82.70;;;;;;5042097;28;19952;-89
2021/12/22 02:36:23;;;;;;;;;;;0.20;82.70;;;;;;5025607;28;19932;-90
2021/12/22 02:38:51;;;;;;;;;;;0.20;82.70;;;;;;5041185;28;19916;-89
2021/12/22 02:41:17;;;;;;;;;;;0.20;82.70;;;;;;5025152;28;19913;-90
2021/12/22 02:46:46;;;;;;;;;;;0.10;82.70;;;;;;5046033;28;20067;-91
2021/12/22 02:49:12;;;;;;;;;;;0.10;82.60;;;;;;5045824;28;19913;-89
2021/12/22 02:51:38;;;;;;;;;;;0.10;82.60;;;;;;5028679;28;19928;-90
2021/12/22 02:54:20;;;;;;;;;;;0.10;82.60;;;;;;5045451;28;19913;-90
2021/12/22 03:04:11;;;;;;;;;;;0.00;82.60;;;;;;5046139;28;20362;-90
2021/12/22 03:06:55;;;;;;;;;;;0.00;82.60;;;;;;5045424;28;19909;-88
2021/12/22 03:09:29;;;;;;;;;;;0.00;82.60;;;;;;5028444;28;19909;-90
2021/12/22 03:14:58;;;;;;;;;;;0.00;82.70;;;;;;5038005;28;20055;-90
2021/12/22 03:20:27;;;;;;;;;;;-0.10;82.60;;;;;;5026610;28;20387;-90
2021/12/22 03:22:52;;;;;;;;;;;-0.10;82.50;;;;;;5025400;28;19909;-90
2021/12/22 03:25:20;;;;;;;;;;;-0.10;82.60;;;;;;5025411;28;19913;-90
2021/12/22 03:27:50;;;;;;;;;;;-0.10;82.60;;;;;;5025438;28;20289;-90
2021/12/22 03:30:18;;;;;;;;;;;-0.10;82.60;;;;;;5025688;28;19959;-90
2021/12/22 03:32:44;;;;;;;;;;;-0.10;82.60;;;;;;5008569;28;20270;-90
2021/12/22 03:35:16;;;;;;;;;;;-0.20;82.50;;;;;;5024403;28;19916;-90
2021/12/22 03:37:48;;;;;;;;;;;-0.20;82.50;;;;;;5008542;28;20365;-90
2021/12/22 03:40:18;;;;;;;;;;;-0.20;82.60;;;;;;5024925;28;20365;-90
2021/12/22 03:42:44;;;;;;;;;;;-0.20;82.60;;;;;;5025279;28;19909;-91
2021/12/22 03:45:09;;;;;;;;;;;-0.20;82.50;;;;;;5024594;28;19985;-91
2021/12/22 03:47:35;;;;;;;;;;;-0.20;82.50;;;;;;5024804;28;20022;-89
2021/12/22 03:50:00;;;;;;;;;;;-0.20;82.50;;;;;;5023863;28;19910;-90
2021/12/22 03:52:26;;;;;;;;;;;-0.20;82.50;;;;;;5024639;28;19979;-90
2021/12/22 03:54:57;;;;;;;;;;;-0.20;82.60;;;;;;5041839;28;19947;-91
2021/12/22 03:57:24;;;;;;;;;;;-0.20;82.60;;;;;;5024606;28;19959;-88
2021/12/22 03:59:49;;;;;;;;;;;-0.20;82.60;;;;;;5007325;28;19913;-89
2021/12/22 04:02:19;;;;;;;;;;;-0.20;82.50;;;;;;5024246;28;19913;-90
2021/12/22 04:04:46;;;;;;;;;;;-0.20;82.50;;;;;;5023839;28;19968;-89
2021/12/22 04:07:12;;;;;;;;;;;-0.20;82.60;;;;;;5025201;28;19916;-88
2021/12/22 04:09:37;;;;;;;;;;;-0.30;82.50;;;;;;5024050;28;20432;-89
2021/12/22 04:12:03;;;;;;;;;;;-0.20;82.50;;;;;;5023749;28;19909;-90
2021/12/22 04:14:29;;;;;;;;;;;-0.30;82.50;;;;;;5023898;28;19944;-90
2021/12/22 04:16:54;;;;;;;;;;;-0.30;82.50;;;;;;5023793;28;19941;-90
2021/12/22 04:19:20;;;;;;;;;;;-0.30;82.50;;;;;;5023757;28;19913;-89
2021/12/22 04:21:45;;;;;;;;;;;-0.30;82.50;;;;;;5024423;28;19917;-90
2021/12/22 04:24:11;;;;;;;;;;;-0.30;82.50;;;;;;5007510;28;19916;-91
2021/12/22 04:26:36;;;;;;;;;;;-0.30;82.50;;;;;;5023990;28;19910;-91
2021/12/22 04:29:02;;;;;;;;;;;-0.30;82.50;;;;;;5024032;28;19911;-91
2021/12/22 04:31:27;;;;;;;;;;;-0.40;82.40;;;;;;5023980;28;19915;-90
2021/12/22 04:33:53;;;;;;;;;;;-0.40;82.40;;;;;;5023453;28;20374;-90
2021/12/22 04:36:18;;;;;;;;;;;-0.40;82.50;;;;;;5023918;28;19917;-89
2021/12/22 04:38:44;;;;;;;;;;;-0.40;82.40;;;;;;5023307;28;20047;-89
2021/12/22 04:41:09;;;;;;;;;;;-0.40;82.40;;;;;;5023306;28;19959;-90
2021/12/22 04:43:35;;;;;;;;;;;-0.40;82.50;;;;;;5003587;28;19913;-90
2021/12/22 04:46:01;;;;;;;;;;;-0.40;82.50;;;;;;4986737;28;19913;-90
2021/12/22 04:48:26;;;;;;;;;;;-0.40;82.40;;;;;;4986698;28;19917;-91
2021/12/22 04:50:52;;;;;;;;;;;-0.40;82.40;;;;;;4987817;28;20413;-90
2021/12/22 04:53:23;;;;;;;;;;;-0.50;82.30;;;;;;4986808;28;19914;-89
2021/12/22 04:55:49;;;;;;;;;;;-0.40;82.30;;;;;;4987012;28;19948;-90
2021/12/22 04:58:15;;;;;;;;;;;-0.50;82.30;;;;;;4986463;28;19909;-90
2021/12/22 05:00:40;;;;;;;;;;;-0.50;82.30;;;;;;4986679;28;19910;-88
2021/12/22 05:03:06;;;;;;;;;;;-0.50;82.30;;;;;;4987105;28;20392;-89
2021/12/22 05:05:31;;;;;;;;;;;-0.40;82.30;;;;;;5003192;28;19926;-90
2021/12/22 05:07:57;;;;;;;;;;;-0.50;82.30;;;;;;4986960;28;19909;-90
2021/12/22 05:10:23;;;;;;;;;;;-0.50;82.20;;;;;;4986510;28;19916;-92
2021/12/22 05:12:49;;;;;;;;;;;-0.50;82.30;;;;;;4987029;28;19914;-91
2021/12/22 05:15:19;;;;;;;;;;;-0.50;82.20;;;;;;5002445;28;19956;-91
2021/12/22 05:20:11;;;;;;;;;;;-0.50;82.30;;;;;;5024949;28;19927;-92
2021/12/22 05:22:36;;;;;;;;;;;-0.50;82.40;;;;;;5023580;28;20007;-92
2021/12/22 05:25:06;;;;;;;;;;;-0.60;82.30;;;;;;5023855;28;19910;-90
2021/12/22 05:27:32;;;;;;;;;;;-0.50;82.30;;;;;;5023812;28;19909;-91
2021/12/22 05:29:58;;;;;;;;;;;-0.60;82.20;;;;;;5023771;28;20364;-91
2021/12/22 05:32:29;;;;;;;;;;;-0.50;82.30;;;;;;5006983;28;19909;-90
2021/12/22 05:34:55;;;;;;;;;;;-0.60;82.10;;;;;;5007201;28;19909;-91
2021/12/22 05:37:21;;;;;;;;;;;-0.60;82.20;;;;;;5024154;28;19945;-90
2021/12/22 05:39:46;;;;;;;;;;;-0.60;82.20;;;;;;5007164;28;19910;-91
2021/12/22 05:42:12;;;;;;;;;;;-0.60;82.20;;;;;;5023484;28;20420;-91
2021/12/22 05:45:02;;;;;;;;;;;-0.60;82.20;;;;;;5024204;28;20431;-91
2021/12/22 05:47:32;;;;;;;;;;;-0.60;82.20;;;;;;4992536;28;19910;-90
2021/12/22 05:53:01;;;;;;;;;;;-0.70;82.20;;;;;;5025875;28;19921;-92
2021/12/22 05:55:27;;;;;;;;;;;-0.60;82.30;;;;;;5007871;28;19910;-92
2021/12/22 05:57:53;;;;;;;;;;;-0.70;82.20;;;;;;5011707;28;19964;-90
2021/12/22 06:00:24;;;;;;;;;;;-0.70;82.20;;;;;;5025439;28;19933;-91
2021/12/22 06:05:59;;;;;;;;;;;-0.70;82.30;;;;;;5025652;28;20439;-91
2021/12/22 06:08:27;;;;;;;;;;;-0.70;82.30;;;;;;5008074;28;19909;-91
2021/12/22 06:10:53;;;;;;;;;;;-0.70;82.30;;;;;;5024479;28;19981;-92
2021/12/22 06:13:19;;;;;;;;;;;-0.70;82.30;;;;;;5007763;28;19960;-91
2021/12/22 06:19:25;;;;;;;;;;;-0.70;82.40;;;;;;5026143;28;19916;-92
2021/12/22 06:21:51;;;;;;;;;;;-0.80;82.30;;;;;;5027407;28;19909;-91
2021/12/22 06:24:17;;;;;;;;;;;-0.80;82.30;;;;;;5028240;28;19909;-90
2021/12/22 06:26:43;;;;;;;;;;;-0.80;82.30;;;;;;5011038;28;20326;-92
2021/12/22 06:29:11;;;;;;;;;;;-0.80;82.30;;;;;;5027400;28;19996;-92
2021/12/22 06:34:40;;;;;;;;;;;-0.80;82.40;;;;;;5027418;28;19936;-91
2021/12/22 06:37:06;;;;;;;;;;;-0.80;82.40;;;;;;5027737;28;19976;-92
2021/12/22 06:39:31;;;;;;;;;;;-0.90;82.40;;;;;;5009098;28;19960;-90
2021/12/22 06:41:57;;;;;;;;;;;-0.90;82.40;;;;;;5025545;28;19985;-92
2021/12/22 06:44:24;;;;;;;;;;;-0.90;82.40;;;;;;5025934;28;19917;-91
2021/12/22 06:46:50;;;;;;;;;;;-0.90;82.50;;;;;;5024402;28;19909;-89
2021/12/22 06:49:15;;;;;;;;;;;-0.90;82.50;;;;;;5006851;28;19976;-89
2021/12/22 06:51:41;;;;;;;;;;;-0.90;82.40;;;;;;5022725;28;19971;-89
2021/12/22 06:54:06;;;;;;;;;;;-0.90;82.40;;;;;;5023302;28;19967;-91
2021/12/22 06:56:32;;;;;;;;;;;-0.90;82.50;;;;;;5024039;28;19909;-92
2021/12/22 06:58:59;;;;;;;;;;;-0.90;82.40;;;;;;5023817;28;19909;-90
2021/12/22 07:01:25;;;;;;;;;;;-0.90;82.40;;;;;;5023938;28;19920;-91
2021/12/22 07:03:50;;;;;;;;;;;-0.90;82.40;;;;;;5025054;28;19992;-92
2021/12/22 07:06:16;;;;;;;;;;;-1.00;82.40;;;;;;5025398;28;20399;-93
2021/12/22 07:08:42;;;;;;;;;;;-0.90;82.50;;;;;;5026637;28;19909;-88
2021/12/22 07:11:08;;;;;;;;;;;-1.00;82.30;;;;;;5006837;28;19916;-88
2021/12/22 07:13:33;;;;;;;;;;;-1.00;82.40;;;;;;5021353;28;19913;-83
2021/12/22 07:15:59;;;;;;;;;;;-1.00;82.50;;;;;;5003585;28;20379;-83
2021/12/22 07:18:25;;;;;;;;;;;-1.00;82.50;;;;;;5002580;28;19906;-83
2021/12/22 07:20:50;;;;;;;;;;;-1.00;82.50;;;;;;5001233;28;20425;-83
2021/12/22 07:23:16;;;;;;;;;;;-1.00;82.50;;;;;;5003636;28;19910;-82
2021/12/22 07:25:42;;;;;;;;;;;-1.00;82.50;;;;;;5002826;28;19936;-83
2021/12/22 07:28:10;;;;;;;;;;;-1.00;82.50;;;;;;5002123;28;19913;-83
2021/12/22 07:30:36;;;;;;;;;;;-1.00;82.50;;;;;;5002319;28;20405;-83
2021/12/22 07:33:03;;;;;;;;;;;-1.00;82.50;;;;;;5002862;28;19917;-82
2021/12/22 07:35:47;;;;;;;;;;;-1.00;82.50;;;;;;5001490;28;19999;-83
2021/12/22 07:38:31;;;;;;;;;;;-1.00;82.50;;;;;;5016946;28;19906;-82
2021/12/22 07:40:57;;;;;;;;;;;-0.90;82.60;;;;;;5000757;28;19948;-82
2021/12/22 07:46:26;;;;;;;;;;;-0.90;82.50;;;;;;5019485;28;19977;-83
2021/12/22 07:48:52;;;;;;;;;;;-0.90;82.50;;;;;;5001547;28;19941;-83
2021/12/22 07:51:18;;;;;;;;;;;-0.90;82.60;;;;;;5001113;28;19905;-84
2021/12/22 07:53:43;;;;;;;;;;;-0.90;82.60;;;;;;5001691;28;20059;-83
2021/12/22 07:56:09;;;;;;;;;;;-0.90;82.60;;;;;;5001581;28;19948;-83
2021/12/22 07:58:34;;;;;;;;;;;-0.90;82.60;;;;;;5002541;28;19905;-83
2021/12/22 08:01:00;;;;;;;;;;;-0.90;82.60;;;;;;5001932;28;19906;-83
2021/12/22 08:03:26;;;;;;;;;;;-0.90;83.20;;;;;;5002215;28;19910;-85
2021/12/22 08:05:51;;;;;;;;;;;-0.90;82.50;;;;;;5003060;28;20306;-83
2021/12/22 08:08:18;;;;;;;;;;;-0.90;82.50;;;;;;5002468;28;19910;-83
2021/12/22 08:10:44;;;;;;;;;;;-0.80;82.50;;;;;;5035179;28;19936;-83
2021/12/22 08:13:10;;;;;;;;;;;-0.80;82.50;;;;;;5003420;28;19909;-83
2021/12/22 08:15:36;;;;;;;;;;;-0.70;82.50;;;;;;4880424;28;3598227;-84
2021/12/22 08:18:01;;;;;;;;;;;-0.70;82.40;;;;;;5005174;28;19916;-84
2021/12/22 08:20:27;;;;;;;;;;;-0.70;82.40;;;;;;5004702;28;19909;-84
2021/12/22 08:22:53;;;;;;;;;;;-0.70;82.40;;;;;;5004768;28;19909;-84
2021/12/22 08:25:19;;;;;;;;;;;-0.60;82.40;;;;;;5005934;28;19909;-85
2021/12/22 08:27:45;;;;;;;;;;;-0.60;82.30;;;;;;5006349;28;19909;-83
2021/12/22 08:33:26;;;;;;;;;;;-0.60;82.30;;;;;;5023218;28;19923;-84
2021/12/22 08:38:58;;;;;;;;;;;-0.50;82.20;;;;;;5021401;28;19948;-84
2021/12/22 08:41:31;;;;;;;;;;;-0.50;82.20;;;;;;5003968;28;19909;-83
2021/12/22 08:43:58;;;;;;;;;;;-0.40;82.30;;;;;;5002409;28;20348;-84
2021/12/22 08:50:29;;;;;;;;;;;;;;;;;;;;;
2021/12/22 08:59:36;;;;;;;;;;;-0.20;82.30;;;;;;4944302;29;19911;-83
2021/12/22 09:02:02;;;;;;;;;;;-0.20;82.20;;;;;;4949734;28;19910;-84
2021/12/22 09:05:21;;;;;;;;;;;-0.20;82.20;;;;;;5004157;28;20008;-85
2021/12/22 09:10:49;;;;;;;;;;;0.00;82.30;;;;;;5005986;28;19917;-85
2021/12/22 09:37:03;;;;;;;;;;;0.40;81.80;;;;;;5035995;28;20031;-83
2021/12/22 09:39:29;;;;;;;;;;;0.50;81.70;;;;;;5022140;28;19977;-83
2021/12/22 09:45:00;;;;;;;;;;;0.50;81.70;;;;;;5022473;28;19916;-83
2021/12/22 09:47:30;;;;;;;;;;;0.60;81.70;;;;;;5020810;28;19914;-83
2021/12/22 09:50:07;;;;;;;;;;;0.60;81.70;;;;;;5005521;28;19909;-82
2021/12/22 09:52:37;;;;;;;;;;;0.60;81.60;;;;;;5020778;28;19909;-84
2021/12/22 09:55:04;;;;;;;;;;;0.70;81.60;;;;;;5004668;28;19987;-84
2021/12/22 09:57:30;;;;;;;;;;;0.70;81.60;;;;;;5005268;28;20016;-84
2021/12/22 10:00:14;;;;;;;;;;;0.70;81.60;;;;;;5022710;28;19913;-85
2021/12/22 10:05:44;;;;;;;;;;;0.80;81.60;;;;;;5022304;28;19929;-85
2021/12/22 10:08:17;;;;;;;;;;;0.90;81.50;;;;;;5021642;28;19932;-82
2021/12/22 10:14:19;;;;;;;;;;;1.00;81.50;;;;;;5020859;28;19920;-83
2021/12/22 10:19:57;;;;;;;;;;;1.10;81.50;;;;;;5023070;28;19920;-84
2021/12/22 10:25:33;;;;;;;;;;;1.20;81.40;;;;;;5023008;28;19967;-84
2021/12/22 10:28:01;;;;;;;;;;;1.30;81.30;;;;;;5021101;28;20364;-83
2021/12/22 10:30:32;;;;;;;;;;;1.30;81.30;;;;;;5003850;28;20368;-84
2021/12/22 10:33:05;;;;;;;;;;;1.40;81.30;;;;;;5036293;28;19964;-84
2021/12/22 10:35:34;;;;;;;;;;;1.40;81.30;;;;;;5002372;28;19940;-84
2021/12/22 10:38:01;;;;;;;;;;;1.50;81.20;;;;;;5018822;28;20177;-84
2021/12/22 10:40:29;;;;;;;;;;;1.50;81.10;;;;;;5001809;28;19949;-85
2021/12/22 10:46:03;;;;;;;;;;;1.50;81.30;;;;;;5022322;28;19936;-84
2021/12/22 10:51:25;;;;;;;;;;;1.60;81.10;;;;;;5023414;28;19917;-84
2021/12/22 10:53:53;;;;;;;;;;;1.60;81.10;;;;;;5021229;28;20432;-84
2021/12/22 10:56:30;;;;;;;;;;;1.60;81.20;;;;;;5020311;28;19909;-85
2021/12/22 10:59:03;;;;;;;;;;;1.70;81.20;;;;;;5005414;28;19916;-85
2021/12/22 11:01:28;;;;;;;;;;;1.70;81.00;;;;;;5004911;28;19909;-84
2021/12/22 11:04:02;;;;;;;;;;;1.80;80.90;;;;;;5019301;28;20018;-83
2021/12/22 11:06:30;;;;;;;;;;;1.80;80.90;;;;;;5018131;28;20273;-84
2021/12/22 11:08:58;;;;;;;;;;;1.80;80.80;;;;;;5022255;28;20408;-84
2021/12/22 11:14:38;;;;;;;;;;;1.90;80.80;;;;;;5024519;28;20001;-86
2021/12/22 11:17:04;;;;;;;;;;;2.00;80.80;;;;;;5006440;28;19909;-86
2021/12/22 11:19:35;;;;;;;;;;;2.00;80.70;;;;;;5006977;28;19916;-84
2021/12/22 11:25:11;;;;;;;;;;;2.10;80.60;;;;;;5021220;28;19921;-85
2021/12/22 11:27:37;;;;;;;;;;;2.10;80.50;;;;;;5035683;28;19909;-85
2021/12/22 11:30:44;;;;;;;;;;;;;;;;;;;;;
2021/12/22 11:36:50;;;;;;;;;;;2.20;80.40;;;;;;4998659;23;19916;-76
2021/12/22 11:39:16;;;;;;;;;;;2.20;80.40;;;;;;5056867;28;19920;-74
2021/12/22 11:41:56;;;;;;;;;;;2.20;80.40;;;;;;5057588;28;19909;-73
2021/12/22 11:44:23;;;;;;;;;;;2.30;80.40;;;;;;5057584;28;19908;-75
2021/12/22 11:46:49;;;;;;;;;;;2.30;80.30;;;;;;5075477;28;19912;-75
2021/12/22 11:49:24;;;;;;;;;;;2.40;80.30;;;;;;5074087;28;19936;-77
2021/12/22 11:51:50;;;;;;;;;;;2.40;80.20;;;;;;5057512;28;19954;-76
2021/12/22 11:54:16;;;;;;;;;;;2.40;80.20;;;;;;5057191;28;19958;-76
2021/12/22 11:56:50;;;;;;;;;;;2.40;80.30;;;;;;5057667;28;20364;-75
2021/12/22 11:59:24;;;;;;;;;;;2.50;80.20;;;;;;5057394;28;19999;-76
2021/12/22 12:02:09;;;;;;;;;;;2.50;80.10;;;;;;5057589;28;20364;-76
2021/12/22 12:04:34;;;;;;;;;;;2.60;80.10;;;;;;5056794;28;19908;-76
2021/12/22 12:07:00;;;;;;;;;;;2.60;80.10;;;;;;5075524;28;19908;-76
2021/12/22 12:09:29;;;;;;;;;;;2.70;80.00;;;;;;5057164;28;20446;-76
2021/12/22 12:11:56;;;;;;;;;;;2.70;80.00;;;;;;5057187;28;19957;-78
2021/12/22 12:14:38;;;;;;;;;;;2.70;79.90;;;;;;5057215;28;20003;-75
2021/12/22 12:23:34;;;;;;;;;;;2.90;79.60;;;;;;5032958;28;19959;-76
2021/12/22 12:26:04;;;;;;;;;;;3.00;79.60;;;;;;5032614;28;19909;-75
2021/12/22 12:28:30;;;;;;;;;;;3.00;79.70;;;;;;5047510;28;20049;-74
2021/12/22 12:30:57;;;;;;;;;;;3.00;79.60;;;;;;5057108;28;19909;-75
2021/12/22 12:33:26;;;;;;;;;;;3.00;79.60;;;;;;5056219;28;19912;-76
2021/12/22 12:36:08;;;;;;;;;;;3.00;79.50;;;;;;5074802;28;19908;-75
2021/12/22 12:38:40;;;;;;;;;;;3.00;79.40;;;;;;5056134;28;19916;-76
2021/12/22 12:41:11;;;;;;;;;;;3.00;79.50;;;;;;5073257;28;19908;-76
2021/12/22 12:46:34;;;;;;;;;;;3.00;79.40;;;;;;5074791;28;19908;-76
2021/12/22 12:49:03;;;;;;;;;;;3.00;79.40;;;;;;5073103;28;19908;-77
2021/12/22 12:51:47;;;;;;;;;;;3.10;79.50;;;;;;5074538;28;20386;-76
2021/12/22 12:54:16;;;;;;;;;;;3.20;80.10;;;;;;5074318;28;19935;-76
2021/12/22 12:56:49;;;;;;;;;;;3.10;79.40;;;;;;5073018;28;19909;-76
2021/12/22 12:59:18;;;;;;;;;;;3.20;79.30;;;;;;5056377;28;20309;-76
2021/12/22 13:01:44;;;;;;;;;;;3.20;79.30;;;;;;5056141;28;20391;-76
2021/12/22 13:04:18;;;;;;;;;;;3.20;79.30;;;;;;5073004;28;19913;-76
2021/12/22 13:06:44;;;;;;;;;;;3.20;79.30;;;;;;5072844;28;20279;-76
2021/12/22 13:09:28;;;;;;;;;;;3.10;79.30;;;;;;5074237;28;19999;-80
2021/12/22 13:11:59;;;;;;;;;;;3.20;79.40;;;;;;5056187;28;20360;-79
2021/12/22 13:17:09;;;;;;;;;;;3.10;79.30;;;;;;5073889;28;19962;-79
2021/12/22 13:19:43;;;;;;;;;;;3.20;79.40;;;;;;5072730;28;19908;-79
2021/12/22 13:22:15;;;;;;;;;;;3.20;79.40;;;;;;5055940;28;19908;-78
2021/12/22 13:24:41;;;;;;;;;;;3.10;79.20;;;;;;5049889;28;19908;-78
2021/12/22 13:27:06;;;;;;;;;;;3.10;79.30;;;;;;5056413;28;19908;-79
2021/12/22 13:29:32;;;;;;;;;;;3.10;79.30;;;;;;5072958;28;19931;-79
2021/12/22 13:32:07;;;;;;;;;;;3.10;79.40;;;;;;5056716;28;19935;-79
2021/12/22 13:34:46;;;;;;;;;;;3.10;79.50;;;;;;5055941;28;19913;-79
2021/12/22 13:37:11;;;;;;;;;;;3.10;79.60;;;;;;5074206;28;19913;-78
2021/12/22 13:39:41;;;;;;;;;;;3.10;79.50;;;;;;5056220;28;19981;-79
2021/12/22 13:42:07;;;;;;;;;;;3.10;79.60;;;;;;5056184;28;19999;-79
2021/12/22 13:44:38;;;;;;;;;;;3.00;79.60;;;;;;5074229;28;20402;-79
2021/12/22 13:47:04;;;;;;;;;;;3.00;79.60;;;;;;5074234;28;19912;-80
2021/12/22 13:49:31;;;;;;;;;;;3.00;79.70;;;;;;5056041;28;20430;-79
2021/12/22 13:51:57;;;;;;;;;;;3.00;79.80;;;;;;5073920;28;20311;-80
2021/12/22 13:54:27;;;;;;;;;;;2.90;79.80;;;;;;5056301;28;19912;-80
2021/12/22 13:56:57;;;;;;;;;;;2.90;79.80;;;;;;5073968;28;19909;-79
2021/12/22 13:59:23;;;;;;;;;;;2.80;79.80;;;;;;5055842;28;19908;-79
2021/12/22 14:01:50;;;;;;;;;;;2.80;79.90;;;;;;5055639;28;20397;-80
2021/12/22 14:04:25;;;;;;;;;;;2.80;80.50;;;;;;5056231;28;19909;-79
2021/12/22 14:06:51;;;;;;;;;;;2.80;80.00;;;;;;5072726;28;19954;-79
2021/12/22 14:09:21;;;;;;;;;;;2.80;80.10;;;;;;5055764;28;19914;-80
2021/12/22 14:11:58;;;;;;;;;;;2.90;80.70;;;;;;5055297;28;20283;-79
2021/12/22 14:14:25;;;;;;;;;;;2.80;80.50;;;;;;5055336;28;19913;-79
2021/12/22 14:17:03;;;;;;;;;;;2.80;80.50;;;;;;5055742;28;19915;-79
2021/12/22 14:19:30;;;;;;;;;;;2.80;80.50;;;;;;5072302;28;19909;-80
2021/12/22 14:22:00;;;;;;;;;;;2.80;80.30;;;;;;5055445;28;19916;-80
2021/12/22 14:24:30;;;;;;;;;;;2.70;80.30;;;;;;5055479;28;19915;-79
2021/12/22 14:26:58;;;;;;;;;;;2.80;80.40;;;;;;5055461;28;19909;-79
2021/12/22 14:29:24;;;;;;;;;;;2.80;80.40;;;;;;5072103;28;19908;-79
2021/12/22 14:32:06;;;;;;;;;;;2.80;80.40;;;;;;5055796;28;19915;-79
2021/12/22 14:34:35;;;;;;;;;;;2.80;80.40;;;;;;5055409;28;19962;-79
2021/12/22 14:37:04;;;;;;;;;;;2.70;80.40;;;;;;5053886;28;19908;-79
2021/12/22 14:39:40;;;;;;;;;;;2.70;80.40;;;;;;5035369;28;19912;-79
2021/12/22 14:42:17;;;;;;;;;;;2.70;80.50;;;;;;5053276;28;19909;-79
2021/12/22 14:44:43;;;;;;;;;;;2.70;80.40;;;;;;5055603;28;20360;-78
2021/12/22 14:47:15;;;;;;;;;;;2.70;80.50;;;;;;5039231;28;19934;-79
2021/12/22 14:49:42;;;;;;;;;;;2.70;80.50;;;;;;5038932;28;19924;-79
2021/12/22 14:52:08;;;;;;;;;;;2.60;80.60;;;;;;5056069;28;19915;-79
2021/12/22 14:54:33;;;;;;;;;;;2.60;80.70;;;;;;5055697;28;19916;-79
2021/12/22 14:56:59;;;;;;;;;;;2.60;80.80;;;;;;5056967;28;19999;-79
2021/12/22 14:59:25;;;;;;;;;;;2.50;81.40;;;;;;5038757;28;19908;-78
2021/12/22 15:01:51;;;;;;;;;;;2.50;80.90;;;;;;5039009;28;19909;-78
2021/12/22 15:04:16;;;;;;;;;;;2.50;81.00;;;;;;5038790;28;19909;-79
2021/12/22 15:06:42;;;;;;;;;;;2.50;81.10;;;;;;5056429;28;20429;-81
2021/12/22 15:09:09;;;;;;;;;;;2.40;81.20;;;;;;5039562;28;19915;-78
2021/12/22 15:11:35;;;;;;;;;;;2.40;81.20;;;;;;5055219;28;19931;-78
2021/12/22 15:14:01;;;;;;;;;;;2.30;81.80;;;;;;5038614;28;19912;-79
2021/12/22 15:16:27;;;;;;;;;;;2.30;81.30;;;;;;5055640;28;20321;-79
2021/12/22 15:18:53;;;;;;;;;;;2.30;81.30;;;;;;5056755;28;20015;-79
2021/12/22 15:21:20;;;;;;;;;;;2.30;81.40;;;;;;5056815;28;19912;-79
2021/12/22 15:23:46;;;;;;;;;;;2.20;81.40;;;;;;5038630;28;20007;-79
2021/12/22 15:26:12;;;;;;;;;;;2.20;81.50;;;;;;5055524;28;20338;-79
2021/12/22 15:28:38;;;;;;;;;;;2.20;81.60;;;;;;5055346;28;20003;-79
2021/12/22 15:31:04;;;;;;;;;;;2.20;81.60;;;;;;5055118;28;19912;-79
2021/12/22 15:33:31;;;;;;;;;;;2.20;81.70;;;;;;5038277;28;20482;-79
2021/12/22 15:35:57;;;;;;;;;;;2.20;81.70;;;;;;5056050;28;19916;-78
2021/12/22 15:38:23;;;;;;;;;;;2.10;81.70;;;;;;5068967;28;19947;-81
2021/12/22 15:40:50;;;;;;;;;;;2.10;81.70;;;;;;5058251;28;19908;-80
2021/12/22 15:43:15;;;;;;;;;;;2.10;81.70;;;;;;5075274;28;19908;-81
2021/12/22 15:45:41;;;;;;;;;;;2.10;81.70;;;;;;5058836;28;19915;-81
2021/12/22 15:48:07;;;;;;;;;;;2.10;81.70;;;;;;5059597;28;20005;-80
2021/12/22 15:50:33;;;;;;;;;;;2.10;81.80;;;;;;5058388;28;20297;-80
2021/12/22 15:52:58;;;;;;;;;;;2.10;81.80;;;;;;5058010;28;20367;-80
2021/12/22 15:55:24;;;;;;;;;;;2.00;81.80;;;;;;5076584;28;19915;-80
2021/12/22 15:57:50;;;;;;;;;;;2.10;81.90;;;;;;5058200;28;19909;-80
2021/12/22 16:00:19;;;;;;;;;;;2.10;81.90;;;;;;5058383;28;19970;-79
2021/12/22 16:02:45;;;;;;;;;;;2.10;81.90;;;;;;5074876;28;19938;-78
2021/12/22 16:05:11;;;;;;;;;;;2.10;81.90;;;;;;5076348;28;20273;-80
2021/12/22 16:07:38;;;;;;;;;;;2.10;81.90;;;;;;5058537;28;19994;-81
2021/12/22 16:10:07;;;;;;;;;;;2.10;81.90;;;;;;5058092;28;19908;-80
2021/12/22 16:12:33;;;;;;;;;;;2.20;81.90;;;;;;5058970;28;19908;-79
2021/12/22 16:14:58;;;;;;;;;;;2.10;81.80;;;;;;5057884;28;19908;-78
2021/12/22 16:17:25;;;;;;;;;;;2.20;81.80;;;;;;5074451;28;19916;-79
2021/12/22 16:19:51;;;;;;;;;;;2.20;81.80;;;;;;5058337;28;19909;-79
2021/12/22 16:22:17;;;;;;;;;;;2.20;81.80;;;;;;5058763;28;20306;-79
2021/12/22 16:24:43;;;;;;;;;;;2.20;81.80;;;;;;5057783;28;19908;-79
2021/12/22 16:27:10;;;;;;;;;;;2.20;81.80;;;;;;5075626;28;19916;-80
2021/12/22 16:29:35;;;;;;;;;;;2.20;81.80;;;;;;5076555;28;20352;-80
2021/12/22 16:32:01;;;;;;;;;;;2.20;81.80;;;;;;5058701;28;19915;-80
2021/12/22 16:34:26;;;;;;;;;;;2.20;81.80;;;;;;5059506;28;19920;-81
2021/12/22 16:36:52;;;;;;;;;;;2.20;81.80;;;;;;5077844;28;19908;-81
2021/12/22 16:39:20;;;;;;;;;;;2.20;81.80;;;;;;5060648;28;19955;-81
2021/12/22 16:41:46;;;;;;;;;;;2.20;81.80;;;;;;5059772;28;20418;-79
2021/12/22 16:47:14;;;;;;;;;;;2.20;81.80;;;;;;5079083;28;19942;-82
2021/12/22 16:49:40;;;;;;;;;;;2.20;81.80;;;;;;5058932;28;19908;-80